sensor_id;sensor_type;location;lat;lon;timestamp;P1;durP1;ratioP1;P2;durP2;ratioP2
68178;SDS011;69812;42.632;23.440;2023-11-21T00:14:38;35.35;;;16.98;;
68178;SDS011;69812;42.632;23.440;2023-11-21T00:17:04;31.90;;;15.20;;
68178;SDS011;69812;42.632;23.440;2023-11-21T00:19:30;35.05;;;13.82;;
68178;SDS011;69812;42.632;23.440;2023-11-21T00:21:56;26.40;;;11.25;;
68178;SDS011;69812;42.632;23.440;2023-11-21T00:24:23;20.33;;;10.65;;
68178;SDS011;69812;42.632;23.440;2023-11-21T00:26:50;25.65;;;12.15;;
68178;SDS011;69812;42.632;23.440;2023-11-21T00:29:15;26.65;;;11.13;;
68178;SDS011;69812;42.632;23.440;2023-11-21T00:31:42;24.33;;;10.02;;
68178;SDS011;69812;42.632;23.440;2023-11-21T00:34:08;25.60;;;12.38;;
68178;SDS011;69812;42.632;23.440;2023-11-21T00:36:34;32.42;;;14.93;;
68178;SDS011;69812;42.632;23.440;2023-11-21T00:38:59;28.65;;;12.45;;
68178;SDS011;69812;42.632;23.440;2023-11-21T00:41:25;32.90;;;14.15;;
68178;SDS011;69812;42.632;23.440;2023-11-21T00:43:52;30.02;;;13.65;;
68178;SDS011;69812;42.632;23.440;2023-11-21T00:46:18;26.85;;;11.77;;
68178;SDS011;69812;42.632;23.440;2023-11-21T00:48:44;26.45;;;11.85;;
68178;SDS011;69812;42.632;23.440;2023-11-21T00:51:09;23.42;;;10.80;;
68178;SDS011;69812;42.632;23.440;2023-11-21T00:53:38;35.10;;;13.20;;
68178;SDS011;69812;42.632;23.440;2023-11-21T00:56:04;54.35;;;19.55;;
68178;SDS011;69812;42.632;23.440;2023-11-21T00:58:30;40.40;;;14.90;;
68178;SDS011;69812;42.632;23.440;2023-11-21T01:00:55;21.95;;;8.55;;
68178;SDS011;69812;42.632;23.440;2023-11-21T01:03:21;16.77;;;6.93;;
68178;SDS011;69812;42.632;23.440;2023-11-21T01:05:46;20.40;;;8.15;;
68178;SDS011;69812;42.632;23.440;2023-11-21T01:08:14;22.67;;;7.38;;
68178;SDS011;69812;42.632;23.440;2023-11-21T01:10:39;14.15;;;5.15;;
68178;SDS011;69812;42.632;23.440;2023-11-21T01:13:05;18.33;;;8.30;;
68178;SDS011;69812;42.632;23.440;2023-11-21T01:15:30;19.70;;;8.82;;
68178;SDS011;69812;42.632;23.440;2023-11-21T01:17:56;18.45;;;8.85;;
68178;SDS011;69812;42.632;23.440;2023-11-21T01:20:21;18.42;;;8.00;;
68178;SDS011;69812;42.632;23.440;2023-11-21T01:22:46;19.42;;;8.75;;
68178;SDS011;69812;42.632;23.440;2023-11-21T01:25:14;16.35;;;7.70;;
68178;SDS011;69812;42.632;23.440;2023-11-21T01:27:41;39.83;;;12.98;;
68178;SDS011;69812;42.632;23.440;2023-11-21T01:30:06;37.95;;;13.15;;
68178;SDS011;69812;42.632;23.440;2023-11-21T01:32:33;24.13;;;10.55;;
68178;SDS011;69812;42.632;23.440;2023-11-21T01:34:59;31.25;;;13.32;;
68178;SDS011;69812;42.632;23.440;2023-11-21T01:37:24;28.70;;;12.80;;
68178;SDS011;69812;42.632;23.440;2023-11-21T01:39:52;29.00;;;13.30;;
68178;SDS011;69812;42.632;23.440;2023-11-21T01:42:21;30.58;;;12.43;;
68178;SDS011;69812;42.632;23.440;2023-11-21T01:44:46;29.17;;;12.30;;
68178;SDS011;69812;42.632;23.440;2023-11-21T01:47:11;22.85;;;9.35;;
68178;SDS011;69812;42.632;23.440;2023-11-21T01:49:38;53.58;;;18.25;;
68178;SDS011;69812;42.632;23.440;2023-11-21T01:52:04;47.85;;;18.75;;
68178;SDS011;69812;42.632;23.440;2023-11-21T01:54:31;40.00;;;15.25;;
68178;SDS011;69812;42.632;23.440;2023-11-21T01:56:59;24.25;;;9.57;;
68178;SDS011;69812;42.632;23.440;2023-11-21T01:59:30;20.60;;;8.13;;
68178;SDS011;69812;42.632;23.440;2023-11-21T02:02:04;21.98;;;9.93;;
68178;SDS011;69812;42.632;23.440;2023-11-21T02:04:31;28.23;;;11.02;;
68178;SDS011;69812;42.632;23.440;2023-11-21T02:06:57;28.83;;;11.82;;
68178;SDS011;69812;42.632;23.440;2023-11-21T02:09:26;27.08;;;11.13;;
68178;SDS011;69812;42.632;23.440;2023-11-21T02:11:53;16.85;;;7.30;;
68178;SDS011;69812;42.632;23.440;2023-11-21T02:14:19;16.85;;;7.93;;
68178;SDS011;69812;42.632;23.440;2023-11-21T02:16:47;18.63;;;7.18;;
68178;SDS011;69812;42.632;23.440;2023-11-21T02:19:19;23.38;;;9.77;;
68178;SDS011;69812;42.632;23.440;2023-11-21T02:21:49;24.80;;;10.13;;
68178;SDS011;69812;42.632;23.440;2023-11-21T02:24:15;24.98;;;11.63;;
68178;SDS011;69812;42.632;23.440;2023-11-21T02:26:42;14.35;;;5.88;;
68178;SDS011;69812;42.632;23.440;2023-11-21T02:29:07;20.00;;;9.50;;
68178;SDS011;69812;42.632;23.440;2023-11-21T02:31:36;18.60;;;9.60;;
68178;SDS011;69812;42.632;23.440;2023-11-21T02:34:10;20.83;;;9.10;;
68178;SDS011;69812;42.632;23.440;2023-11-21T02:36:38;29.13;;;10.10;;
68178;SDS011;69812;42.632;23.440;2023-11-21T02:39:03;28.80;;;11.35;;
68178;SDS011;69812;42.632;23.440;2023-11-21T02:41:29;30.85;;;12.13;;
68178;SDS011;69812;42.632;23.440;2023-11-21T02:43:54;19.40;;;7.97;;
68178;SDS011;69812;42.632;23.440;2023-11-21T02:46:20;16.88;;;8.38;;
68178;SDS011;69812;42.632;23.440;2023-11-21T02:48:45;18.48;;;8.27;;
68178;SDS011;69812;42.632;23.440;2023-11-21T02:51:11;17.00;;;9.13;;
68178;SDS011;69812;42.632;23.440;2023-11-21T02:53:36;21.85;;;9.75;;
68178;SDS011;69812;42.632;23.440;2023-11-21T02:56:03;22.65;;;10.82;;
68178;SDS011;69812;42.632;23.440;2023-11-21T02:58:29;21.88;;;10.10;;
68178;SDS011;69812;42.632;23.440;2023-11-21T03:00:55;26.65;;;11.13;;
68178;SDS011;69812;42.632;23.440;2023-11-21T03:03:21;26.00;;;11.98;;
68178;SDS011;69812;42.632;23.440;2023-11-21T03:05:48;20.10;;;10.40;;
68178;SDS011;69812;42.632;23.440;2023-11-21T03:08:14;26.85;;;14.27;;
68178;SDS011;69812;42.632;23.440;2023-11-21T03:10:39;22.88;;;9.65;;
68178;SDS011;69812;42.632;23.440;2023-11-21T03:13:05;25.90;;;10.20;;
68178;SDS011;69812;42.632;23.440;2023-11-21T03:15:30;23.10;;;10.90;;
68178;SDS011;69812;42.632;23.440;2023-11-21T03:17:57;20.25;;;10.38;;
68178;SDS011;69812;42.632;23.440;2023-11-21T03:20:23;19.08;;;9.05;;
68178;SDS011;69812;42.632;23.440;2023-11-21T03:22:48;20.67;;;8.95;;
68178;SDS011;69812;42.632;23.440;2023-11-21T03:25:14;19.48;;;9.55;;
68178;SDS011;69812;42.632;23.440;2023-11-21T03:27:42;19.77;;;9.90;;
68178;SDS011;69812;42.632;23.440;2023-11-21T03:30:08;24.17;;;11.07;;
68178;SDS011;69812;42.632;23.440;2023-11-21T03:32:34;34.03;;;14.75;;
68178;SDS011;69812;42.632;23.440;2023-11-21T03:35:00;33.53;;;15.27;;
68178;SDS011;69812;42.632;23.440;2023-11-21T03:37:26;19.08;;;8.88;;
68178;SDS011;69812;42.632;23.440;2023-11-21T03:39:52;26.35;;;10.43;;
68178;SDS011;69812;42.632;23.440;2023-11-21T03:42:18;16.83;;;7.72;;
68178;SDS011;69812;42.632;23.440;2023-11-21T03:44:43;22.45;;;8.80;;
68178;SDS011;69812;42.632;23.440;2023-11-21T03:47:09;21.92;;;8.75;;
68178;SDS011;69812;42.632;23.440;2023-11-21T03:49:34;16.65;;;6.97;;
68178;SDS011;69812;42.632;23.440;2023-11-21T03:52:00;20.55;;;8.75;;
68178;SDS011;69812;42.632;23.440;2023-11-21T03:54:25;18.65;;;7.55;;
68178;SDS011;69812;42.632;23.440;2023-11-21T03:56:50;18.42;;;7.68;;
68178;SDS011;69812;42.632;23.440;2023-11-21T03:59:17;20.70;;;9.02;;
68178;SDS011;69812;42.632;23.440;2023-11-21T04:01:42;20.55;;;9.45;;
68178;SDS011;69812;42.632;23.440;2023-11-21T04:04:08;27.92;;;10.60;;
68178;SDS011;69812;42.632;23.440;2023-11-21T04:06:33;22.10;;;9.88;;
68178;SDS011;69812;42.632;23.440;2023-11-21T04:08:58;13.35;;;6.65;;
68178;SDS011;69812;42.632;23.440;2023-11-21T04:11:24;19.80;;;9.60;;
68178;SDS011;69812;42.632;23.440;2023-11-21T04:13:49;20.98;;;10.27;;
68178;SDS011;69812;42.632;23.440;2023-11-21T04:16:15;17.83;;;9.02;;
68178;SDS011;69812;42.632;23.440;2023-11-21T04:18:40;18.45;;;10.10;;
68178;SDS011;69812;42.632;23.440;2023-11-21T04:21:06;14.73;;;7.57;;
68178;SDS011;69812;42.632;23.440;2023-11-21T04:23:32;16.83;;;7.07;;
68178;SDS011;69812;42.632;23.440;2023-11-21T04:25:58;16.27;;;8.07;;
68178;SDS011;69812;42.632;23.440;2023-11-21T04:28:24;17.05;;;8.32;;
68178;SDS011;69812;42.632;23.440;2023-11-21T04:30:50;14.65;;;6.90;;
68178;SDS011;69812;42.632;23.440;2023-11-21T04:33:16;13.73;;;7.25;;
68178;SDS011;69812;42.632;23.440;2023-11-21T04:35:41;15.85;;;7.97;;
68178;SDS011;69812;42.632;23.440;2023-11-21T04:38:07;20.05;;;7.28;;
68178;SDS011;69812;42.632;23.440;2023-11-21T04:40:32;14.50;;;7.20;;
68178;SDS011;69812;42.632;23.440;2023-11-21T04:42:58;16.67;;;8.15;;
68178;SDS011;69812;42.632;23.440;2023-11-21T04:45:23;15.90;;;7.53;;
68178;SDS011;69812;42.632;23.440;2023-11-21T04:47:49;19.02;;;8.57;;
68178;SDS011;69812;42.632;23.440;2023-11-21T04:50:14;21.73;;;9.73;;
68178;SDS011;69812;42.632;23.440;2023-11-21T04:52:39;20.42;;;9.50;;
68178;SDS011;69812;42.632;23.440;2023-11-21T04:55:05;22.55;;;9.77;;
68178;SDS011;69812;42.632;23.440;2023-11-21T04:57:34;20.73;;;9.05;;
68178;SDS011;69812;42.632;23.440;2023-11-21T05:00:00;24.15;;;10.63;;
68178;SDS011;69812;42.632;23.440;2023-11-21T05:02:25;23.27;;;10.25;;
68178;SDS011;69812;42.632;23.440;2023-11-21T05:04:51;23.40;;;8.90;;
68178;SDS011;69812;42.632;23.440;2023-11-21T05:07:16;31.70;;;11.10;;
68178;SDS011;69812;42.632;23.440;2023-11-21T05:09:42;49.22;;;17.65;;
68178;SDS011;69812;42.632;23.440;2023-11-21T05:12:10;23.98;;;11.00;;
68178;SDS011;69812;42.632;23.440;2023-11-21T05:14:36;31.75;;;12.80;;
68178;SDS011;69812;42.632;23.440;2023-11-21T05:17:02;30.42;;;11.73;;
68178;SDS011;69812;42.632;23.440;2023-11-21T05:19:29;23.60;;;9.80;;
68178;SDS011;69812;42.632;23.440;2023-11-21T05:21:54;25.42;;;10.40;;
68178;SDS011;69812;42.632;23.440;2023-11-21T05:24:20;24.38;;;10.23;;
68178;SDS011;69812;42.632;23.440;2023-11-21T05:26:45;25.42;;;10.68;;
68178;SDS011;69812;42.632;23.440;2023-11-21T05:29:10;29.48;;;12.52;;
68178;SDS011;69812;42.632;23.440;2023-11-21T05:31:36;31.98;;;13.65;;
68178;SDS011;69812;42.632;23.440;2023-11-21T05:34:01;32.08;;;14.90;;
68178;SDS011;69812;42.632;23.440;2023-11-21T05:36:28;22.27;;;10.30;;
68178;SDS011;69812;42.632;23.440;2023-11-21T05:38:53;29.80;;;12.88;;
68178;SDS011;69812;42.632;23.440;2023-11-21T05:41:19;36.00;;;14.35;;
68178;SDS011;69812;42.632;23.440;2023-11-21T05:43:45;38.63;;;16.52;;
68178;SDS011;69812;42.632;23.440;2023-11-21T05:46:10;35.28;;;14.50;;
68178;SDS011;69812;42.632;23.440;2023-11-21T05:48:36;36.42;;;17.08;;
68178;SDS011;69812;42.632;23.440;2023-11-21T05:51:03;27.88;;;14.20;;
68178;SDS011;69812;42.632;23.440;2023-11-21T05:53:30;48.95;;;19.02;;
68178;SDS011;69812;42.632;23.440;2023-11-21T05:55:55;37.58;;;16.73;;
68178;SDS011;69812;42.632;23.440;2023-11-21T05:58:21;35.47;;;14.80;;
68178;SDS011;69812;42.632;23.440;2023-11-21T06:00:46;37.80;;;17.35;;
68178;SDS011;69812;42.632;23.440;2023-11-21T06:03:11;41.25;;;21.35;;
68178;SDS011;69812;42.632;23.440;2023-11-21T06:05:37;30.98;;;14.45;;
68178;SDS011;69812;42.632;23.440;2023-11-21T06:08:03;33.13;;;14.20;;
68178;SDS011;69812;42.632;23.440;2023-11-21T06:10:29;41.05;;;16.92;;
68178;SDS011;69812;42.632;23.440;2023-11-21T06:12:54;38.20;;;16.45;;
68178;SDS011;69812;42.632;23.440;2023-11-21T06:15:19;35.03;;;17.10;;
68178;SDS011;69812;42.632;23.440;2023-11-21T06:20:17;27.15;;;13.57;;
68178;SDS011;69812;42.632;23.440;2023-11-21T06:22:43;32.00;;;11.95;;
68178;SDS011;69812;42.632;23.440;2023-11-21T06:25:10;28.25;;;13.00;;
68178;SDS011;69812;42.632;23.440;2023-11-21T06:27:38;34.00;;;15.75;;
68178;SDS011;69812;42.632;23.440;2023-11-21T06:30:06;30.52;;;16.80;;
68178;SDS011;69812;42.632;23.440;2023-11-21T06:32:34;34.70;;;17.88;;
68178;SDS011;69812;42.632;23.440;2023-11-21T06:35:01;37.13;;;18.00;;
68178;SDS011;69812;42.632;23.440;2023-11-21T06:37:28;32.75;;;15.38;;
68178;SDS011;69812;42.632;23.440;2023-11-21T06:39:56;43.47;;;19.90;;
68178;SDS011;69812;42.632;23.440;2023-11-21T06:42:23;46.65;;;22.25;;
68178;SDS011;69812;42.632;23.440;2023-11-21T06:44:49;31.83;;;16.88;;
68178;SDS011;69812;42.632;23.440;2023-11-21T06:47:17;31.15;;;15.48;;
68178;SDS011;69812;42.632;23.440;2023-11-21T06:49:43;29.45;;;15.32;;
68178;SDS011;69812;42.632;23.440;2023-11-21T06:52:08;28.10;;;13.80;;
68178;SDS011;69812;42.632;23.440;2023-11-21T06:54:34;28.40;;;12.98;;
68178;SDS011;69812;42.632;23.440;2023-11-21T06:57:00;30.15;;;14.55;;
68178;SDS011;69812;42.632;23.440;2023-11-21T06:59:25;29.90;;;13.80;;
68178;SDS011;69812;42.632;23.440;2023-11-21T07:01:53;27.60;;;12.65;;
68178;SDS011;69812;42.632;23.440;2023-11-21T07:04:19;27.02;;;13.45;;
68178;SDS011;69812;42.632;23.440;2023-11-21T07:06:45;37.55;;;16.55;;
68178;SDS011;69812;42.632;23.440;2023-11-21T07:09:12;31.27;;;15.10;;
68178;SDS011;69812;42.632;23.440;2023-11-21T07:11:38;30.60;;;15.45;;
68178;SDS011;69812;42.632;23.440;2023-11-21T07:14:03;36.63;;;18.65;;
68178;SDS011;69812;42.632;23.440;2023-11-21T07:16:35;40.58;;;17.30;;
68178;SDS011;69812;42.632;23.440;2023-11-21T07:19:05;32.25;;;15.27;;
68178;SDS011;69812;42.632;23.440;2023-11-21T07:21:36;20.75;;;11.82;;
68178;SDS011;69812;42.632;23.440;2023-11-21T07:24:02;23.83;;;12.20;;
68178;SDS011;69812;42.632;23.440;2023-11-21T07:26:29;18.73;;;10.10;;
68178;SDS011;69812;42.632;23.440;2023-11-21T07:28:55;21.98;;;11.93;;
68178;SDS011;69812;42.632;23.440;2023-11-21T07:31:23;20.38;;;10.10;;
68178;SDS011;69812;42.632;23.440;2023-11-21T07:33:49;20.20;;;10.93;;
68178;SDS011;69812;42.632;23.440;2023-11-21T07:36:14;22.05;;;11.40;;
68178;SDS011;69812;42.632;23.440;2023-11-21T07:38:43;24.85;;;12.38;;
68178;SDS011;69812;42.632;23.440;2023-11-21T07:41:10;22.23;;;11.95;;
68178;SDS011;69812;42.632;23.440;2023-11-21T07:43:36;23.13;;;11.05;;
68178;SDS011;69812;42.632;23.440;2023-11-21T07:46:02;20.48;;;11.68;;
68178;SDS011;69812;42.632;23.440;2023-11-21T07:48:28;19.38;;;9.60;;
68178;SDS011;69812;42.632;23.440;2023-11-21T07:50:54;15.35;;;8.38;;
68178;SDS011;69812;42.632;23.440;2023-11-21T07:53:20;20.65;;;10.13;;
68178;SDS011;69812;42.632;23.440;2023-11-21T07:55:45;17.67;;;9.38;;
68178;SDS011;69812;42.632;23.440;2023-11-21T07:58:12;19.77;;;10.90;;
68178;SDS011;69812;42.632;23.440;2023-11-21T08:00:37;20.15;;;10.27;;
68178;SDS011;69812;42.632;23.440;2023-11-21T08:03:04;22.50;;;10.15;;
68178;SDS011;69812;42.632;23.440;2023-11-21T08:05:30;18.33;;;10.07;;
68178;SDS011;69812;42.632;23.440;2023-11-21T08:07:56;21.00;;;10.32;;
68178;SDS011;69812;42.632;23.440;2023-11-21T08:10:21;20.20;;;9.85;;
68178;SDS011;69812;42.632;23.440;2023-11-21T08:12:47;21.40;;;10.70;;
68178;SDS011;69812;42.632;23.440;2023-11-21T08:15:13;18.35;;;10.07;;
68178;SDS011;69812;42.632;23.440;2023-11-21T08:17:39;16.17;;;10.60;;
68178;SDS011;69812;42.632;23.440;2023-11-21T08:20:05;20.70;;;10.27;;
68178;SDS011;69812;42.632;23.440;2023-11-21T08:22:31;21.52;;;10.80;;
68178;SDS011;69812;42.632;23.440;2023-11-21T08:24:57;20.60;;;11.02;;
68178;SDS011;69812;42.632;23.440;2023-11-21T08:27:22;19.77;;;10.82;;
68178;SDS011;69812;42.632;23.440;2023-11-21T08:29:50;21.90;;;10.95;;
68178;SDS011;69812;42.632;23.440;2023-11-21T08:32:17;20.95;;;10.27;;
68178;SDS011;69812;42.632;23.440;2023-11-21T08:34:43;17.80;;;9.38;;
68178;SDS011;69812;42.632;23.440;2023-11-21T08:37:09;16.40;;;9.32;;
68178;SDS011;69812;42.632;23.440;2023-11-21T08:39:36;17.08;;;9.23;;
68178;SDS011;69812;42.632;23.440;2023-11-21T08:42:02;17.27;;;8.90;;
68178;SDS011;69812;42.632;23.440;2023-11-21T08:44:28;16.60;;;9.25;;
68178;SDS011;69812;42.632;23.440;2023-11-21T08:46:55;15.48;;;9.07;;
68178;SDS011;69812;42.632;23.440;2023-11-21T08:49:20;14.30;;;9.02;;
68178;SDS011;69812;42.632;23.440;2023-11-21T08:51:46;16.17;;;9.10;;
68178;SDS011;69812;42.632;23.440;2023-11-21T08:54:11;16.08;;;9.07;;
68178;SDS011;69812;42.632;23.440;2023-11-21T08:56:37;16.98;;;10.00;;
68178;SDS011;69812;42.632;23.440;2023-11-21T08:59:02;18.42;;;10.55;;
68178;SDS011;69812;42.632;23.440;2023-11-21T09:01:28;21.83;;;11.45;;
68178;SDS011;69812;42.632;23.440;2023-11-21T09:03:56;19.17;;;11.52;;
68178;SDS011;69812;42.632;23.440;2023-11-21T09:06:23;20.40;;;11.20;;
68178;SDS011;69812;42.632;23.440;2023-11-21T09:08:49;20.85;;;11.35;;
68178;SDS011;69812;42.632;23.440;2023-11-21T09:11:15;23.48;;;14.80;;
68178;SDS011;69812;42.632;23.440;2023-11-21T09:13:41;28.95;;;14.93;;
68178;SDS011;69812;42.632;23.440;2023-11-21T09:16:06;23.63;;;13.55;;
68178;SDS011;69812;42.632;23.440;2023-11-21T09:18:32;23.40;;;14.15;;
68178;SDS011;69812;42.632;23.440;2023-11-21T09:20:57;24.38;;;13.52;;
68178;SDS011;69812;42.632;23.440;2023-11-21T09:23:23;21.25;;;11.63;;
68178;SDS011;69812;42.632;23.440;2023-11-21T09:25:49;23.65;;;11.50;;
68178;SDS011;69812;42.632;23.440;2023-11-21T09:28:15;19.63;;;10.63;;
68178;SDS011;69812;42.632;23.440;2023-11-21T09:33:08;15.23;;;8.68;;
68178;SDS011;69812;42.632;23.440;2023-11-21T09:35:38;14.07;;;8.02;;
68178;SDS011;69812;42.632;23.440;2023-11-21T09:38:03;17.17;;;8.18;;
68178;SDS011;69812;42.632;23.440;2023-11-21T09:40:35;14.57;;;8.00;;
68178;SDS011;69812;42.632;23.440;2023-11-21T09:43:02;14.38;;;8.73;;
68178;SDS011;69812;42.632;23.440;2023-11-21T09:45:41;11.98;;;7.43;;
68178;SDS011;69812;42.632;23.440;2023-11-21T09:48:13;13.07;;;7.30;;
68178;SDS011;69812;42.632;23.440;2023-11-21T09:50:41;11.52;;;7.03;;
68178;SDS011;69812;42.632;23.440;2023-11-21T09:55:46;12.00;;;7.45;;
68178;SDS011;69812;42.632;23.440;2023-11-21T09:58:14;13.10;;;6.72;;
68178;SDS011;69812;42.632;23.440;2023-11-21T10:00:43;12.13;;;6.72;;
68178;SDS011;69812;42.632;23.440;2023-11-21T10:03:10;10.98;;;5.82;;
68178;SDS011;69812;42.632;23.440;2023-11-21T10:05:37;10.73;;;6.07;;
68178;SDS011;69812;42.632;23.440;2023-11-21T10:08:10;13.10;;;6.45;;
68178;SDS011;69812;42.632;23.440;2023-11-21T10:10:36;13.18;;;6.53;;
68178;SDS011;69812;42.632;23.440;2023-11-21T10:13:04;12.70;;;7.00;;
68178;SDS011;69812;42.632;23.440;2023-11-21T10:15:33;11.35;;;6.32;;
68178;SDS011;69812;42.632;23.440;2023-11-21T10:18:00;12.10;;;6.75;;
68178;SDS011;69812;42.632;23.440;2023-11-21T10:20:28;9.48;;;5.72;;
68178;SDS011;69812;42.632;23.440;2023-11-21T10:22:54;10.02;;;6.40;;
68178;SDS011;69812;42.632;23.440;2023-11-21T10:25:21;13.63;;;6.15;;
68178;SDS011;69812;42.632;23.440;2023-11-21T10:27:48;8.23;;;5.93;;
68178;SDS011;69812;42.632;23.440;2023-11-21T10:30:16;9.95;;;5.78;;
68178;SDS011;69812;42.632;23.440;2023-11-21T10:32:42;13.35;;;6.30;;
68178;SDS011;69812;42.632;23.440;2023-11-21T10:35:09;13.07;;;6.40;;
68178;SDS011;69812;42.632;23.440;2023-11-21T10:37:37;12.35;;;6.40;;
68178;SDS011;69812;42.632;23.440;2023-11-21T10:40:06;13.52;;;6.78;;
68178;SDS011;69812;42.632;23.440;2023-11-21T10:42:33;12.05;;;6.82;;
68178;SDS011;69812;42.632;23.440;2023-11-21T10:44:58;10.50;;;6.65;;
68178;SDS011;69812;42.632;23.440;2023-11-21T10:47:25;10.80;;;6.90;;
68178;SDS011;69812;42.632;23.440;2023-11-21T10:49:51;13.50;;;7.18;;
68178;SDS011;69812;42.632;23.440;2023-11-21T10:52:18;14.52;;;7.40;;
68178;SDS011;69812;42.632;23.440;2023-11-21T10:54:44;11.63;;;7.35;;
68178;SDS011;69812;42.632;23.440;2023-11-21T10:57:10;12.15;;;6.95;;
68178;SDS011;69812;42.632;23.440;2023-11-21T10:59:41;14.30;;;6.80;;
68178;SDS011;69812;42.632;23.440;2023-11-21T11:02:24;12.55;;;6.93;;
68178;SDS011;69812;42.632;23.440;2023-11-21T11:04:52;14.10;;;8.05;;
68178;SDS011;69812;42.632;23.440;2023-11-21T11:07:20;13.73;;;7.82;;
68178;SDS011;69812;42.632;23.440;2023-11-21T11:09:49;13.80;;;8.18;;
68178;SDS011;69812;42.632;23.440;2023-11-21T11:12:15;18.35;;;9.07;;
68178;SDS011;69812;42.632;23.440;2023-11-21T11:14:42;18.70;;;9.05;;
68178;SDS011;69812;42.632;23.440;2023-11-21T11:17:09;16.58;;;8.35;;
68178;SDS011;69812;42.632;23.440;2023-11-21T11:19:35;15.40;;;9.32;;
68178;SDS011;69812;42.632;23.440;2023-11-21T11:24:57;15.02;;;8.85;;
68178;SDS011;69812;42.632;23.440;2023-11-21T11:33:23;18.52;;;10.00;;
68178;SDS011;69812;42.632;23.440;2023-11-21T11:38:32;15.80;;;8.18;;
68178;SDS011;69812;42.632;23.440;2023-11-21T11:41:01;17.45;;;7.93;;
68178;SDS011;69812;42.632;23.440;2023-11-21T11:43:29;18.33;;;9.30;;
68178;SDS011;69812;42.632;23.440;2023-11-21T11:45:58;18.20;;;9.70;;
68178;SDS011;69812;42.632;23.440;2023-11-21T11:48:24;15.68;;;8.13;;
68178;SDS011;69812;42.632;23.440;2023-11-21T11:53:42;18.00;;;8.45;;
68178;SDS011;69812;42.632;23.440;2023-11-21T11:56:21;13.95;;;7.88;;
68178;SDS011;69812;42.632;23.440;2023-11-21T11:58:48;13.70;;;8.52;;
68178;SDS011;69812;42.632;23.440;2023-11-21T12:01:19;14.77;;;7.78;;
68178;SDS011;69812;42.632;23.440;2023-11-21T12:03:52;12.45;;;6.75;;
68178;SDS011;69812;42.632;23.440;2023-11-21T12:06:40;13.45;;;6.95;;
68178;SDS011;69812;42.632;23.440;2023-11-21T12:11:32;13.85;;;6.78;;
68178;SDS011;69812;42.632;23.440;2023-11-21T12:14:01;15.23;;;8.60;;
68178;SDS011;69812;42.632;23.440;2023-11-21T12:16:27;15.77;;;8.02;;
68178;SDS011;69812;42.632;23.440;2023-11-21T12:18:53;11.75;;;7.28;;
68178;SDS011;69812;42.632;23.440;2023-11-21T12:21:19;14.45;;;8.10;;
68178;SDS011;69812;42.632;23.440;2023-11-21T12:23:45;16.33;;;8.38;;
68178;SDS011;69812;42.632;23.440;2023-11-21T12:26:12;17.35;;;9.02;;
68178;SDS011;69812;42.632;23.440;2023-11-21T12:28:38;21.60;;;9.95;;
68178;SDS011;69812;42.632;23.440;2023-11-21T12:31:04;23.33;;;10.43;;
68178;SDS011;69812;42.632;23.440;2023-11-21T12:33:31;18.77;;;9.88;;
68178;SDS011;69812;42.632;23.440;2023-11-21T12:35:58;19.98;;;10.27;;
68178;SDS011;69812;42.632;23.440;2023-11-21T12:38:23;19.40;;;10.57;;
68178;SDS011;69812;42.632;23.440;2023-11-21T12:40:49;22.38;;;11.18;;
68178;SDS011;69812;42.632;23.440;2023-11-21T12:43:15;24.42;;;12.00;;
68178;SDS011;69812;42.632;23.440;2023-11-21T12:45:43;22.20;;;12.27;;
68178;SDS011;69812;42.632;23.440;2023-11-21T12:48:09;25.83;;;11.85;;
68178;SDS011;69812;42.632;23.440;2023-11-21T12:50:36;25.23;;;11.73;;
68178;SDS011;69812;42.632;23.440;2023-11-21T12:55:35;21.20;;;11.15;;
68178;SDS011;69812;42.632;23.440;2023-11-21T12:58:03;24.23;;;12.43;;
68178;SDS011;69812;42.632;23.440;2023-11-21T13:03:08;22.10;;;13.52;;
68178;SDS011;69812;42.632;23.440;2023-11-21T13:05:39;28.52;;;15.10;;
68178;SDS011;69812;42.632;23.440;2023-11-21T13:08:09;27.70;;;14.25;;
68178;SDS011;69812;42.632;23.440;2023-11-21T13:10:38;26.48;;;15.77;;
68178;SDS011;69812;42.632;23.440;2023-11-21T13:13:07;36.92;;;20.75;;
68178;SDS011;69812;42.632;23.440;2023-11-21T13:15:34;46.63;;;24.08;;
68178;SDS011;69812;42.632;23.440;2023-11-21T13:18:05;36.75;;;20.05;;
68178;SDS011;69812;42.632;23.440;2023-11-21T13:20:32;30.95;;;15.85;;
68178;SDS011;69812;42.632;23.440;2023-11-21T13:22:58;29.58;;;15.88;;
68178;SDS011;69812;42.632;23.440;2023-11-21T13:25:27;31.13;;;17.73;;
68178;SDS011;69812;42.632;23.440;2023-11-21T13:27:56;38.65;;;17.70;;
68178;SDS011;69812;42.632;23.440;2023-11-21T13:30:23;33.72;;;17.67;;
68178;SDS011;69812;42.632;23.440;2023-11-21T13:32:56;31.45;;;15.82;;
68178;SDS011;69812;42.632;23.440;2023-11-21T13:35:27;30.33;;;18.08;;
68178;SDS011;69812;42.632;23.440;2023-11-21T13:38:07;34.83;;;18.42;;
68178;SDS011;69812;42.632;23.440;2023-11-21T13:40:34;33.33;;;19.23;;
68178;SDS011;69812;42.632;23.440;2023-11-21T13:43:07;28.92;;;16.65;;
68178;SDS011;69812;42.632;23.440;2023-11-21T13:45:35;31.67;;;17.52;;
68178;SDS011;69812;42.632;23.440;2023-11-21T13:48:01;36.72;;;17.13;;
68178;SDS011;69812;42.632;23.440;2023-11-21T13:50:27;33.15;;;17.25;;
68178;SDS011;69812;42.632;23.440;2023-11-21T13:53:01;30.45;;;16.35;;
68178;SDS011;69812;42.632;23.440;2023-11-21T13:55:47;29.67;;;16.73;;
68178;SDS011;69812;42.632;23.440;2023-11-21T13:58:14;31.95;;;16.50;;
68178;SDS011;69812;42.632;23.440;2023-11-21T14:00:47;36.72;;;17.75;;
68178;SDS011;69812;42.632;23.440;2023-11-21T14:03:21;37.17;;;18.95;;
68178;SDS011;69812;42.632;23.440;2023-11-21T14:05:48;32.85;;;17.02;;
68178;SDS011;69812;42.632;23.440;2023-11-21T14:08:19;40.10;;;19.58;;
68178;SDS011;69812;42.632;23.440;2023-11-21T14:10:49;30.77;;;17.23;;
68178;SDS011;69812;42.632;23.440;2023-11-21T14:13:22;36.83;;;19.02;;
68178;SDS011;69812;42.632;23.440;2023-11-21T14:18:17;45.45;;;19.98;;
68178;SDS011;69812;42.632;23.440;2023-11-21T14:20:51;38.20;;;19.92;;
68178;SDS011;69812;42.632;23.440;2023-11-21T14:23:16;45.35;;;23.10;;
68178;SDS011;69812;42.632;23.440;2023-11-21T14:25:43;39.28;;;21.27;;
68178;SDS011;69812;42.632;23.440;2023-11-21T14:28:09;40.42;;;23.80;;
68178;SDS011;69812;42.632;23.440;2023-11-21T14:30:37;43.85;;;23.13;;
68178;SDS011;69812;42.632;23.440;2023-11-21T14:33:04;34.67;;;20.08;;
68178;SDS011;69812;42.632;23.440;2023-11-21T14:35:30;39.03;;;20.00;;
68178;SDS011;69812;42.632;23.440;2023-11-21T14:37:57;38.78;;;21.55;;
68178;SDS011;69812;42.632;23.440;2023-11-21T14:40:24;42.78;;;21.60;;
68178;SDS011;69812;42.632;23.440;2023-11-21T14:42:50;39.13;;;20.27;;
68178;SDS011;69812;42.632;23.440;2023-11-21T14:45:23;40.50;;;19.30;;
68178;SDS011;69812;42.632;23.440;2023-11-21T14:47:51;39.60;;;21.15;;
68178;SDS011;69812;42.632;23.440;2023-11-21T14:50:41;39.40;;;20.45;;
68178;SDS011;69812;42.632;23.440;2023-11-21T14:53:07;44.92;;;20.85;;
68178;SDS011;69812;42.632;23.440;2023-11-21T14:55:37;40.55;;;22.80;;
68178;SDS011;69812;42.632;23.440;2023-11-21T14:58:16;46.70;;;25.42;;